Latest Weather Observations for Walpeup

IDV60801

Issued at 3:02 pm EST Tuesday 30 June 2015 (issued every 30 minutes, with the page automatically refreshed every 10 minutes)

About weather observations | Map of weather stations | Latest weather observations for VIC | Other Formats
Station Details ID: 076064 Name: WALPEUP RESEARCH Lat: -35.12 Lon: 142.00 Height: 105.0 m
Data from the previous 72 hours. | See also: Recent months at Walpeup
Date/Time
EST
Temp
°C
App
Temp
°C
Dew
Point
Rel
Hum
%
Delta-T
°C
Wind Press
QNH
hPa
Press
MSL
hPa
Rain
since 9 am
mm
Dir
 
Spd
km/h
Gust
km/h
Spd
kts
Gust
kts
30/03:00pm 11.6 6.8 2.6 54 3.9 S 17 24 9 13 - - 0.0
30/02:30pm 12.1 7.9 3.6 56 3.8 SSW 15 20 8 11 - - 0.0
30/02:00pm 11.4 7.1 3.4 58 3.5 SSW 15 22 8 12 - - 0.0
30/01:30pm 11.2 6.6 3.7 60 3.3 S 17 24 9 13 - - 0.0
30/01:00pm 11.7 7.2 4.0 59 3.5 S 17 26 9 14 - - 0.0
30/12:30pm 10.6 6.9 4.3 65 2.8 SW 13 19 7 10 - - 0.0
30/12:00pm 10.7 7.4 4.4 65 2.8 SW 11 17 6 9 - - 0.0
30/11:30am 10.8 8.5 5.8 71 2.3 WSW 7 13 4 7 - - 0.0
30/11:00am 10.0 7.7 5.8 75 1.9 SSW 7 11 4 6 - - 0.0
30/10:30am 8.9 6.2 5.5 79 1.5 SSW 9 11 5 6 - - 0.0
30/10:00am 8.5 6.3 5.4 81 1.4 SSW 6 7 3 4 - - 0.0
30/09:30am 7.9 6.0 5.0 82 1.3 S 4 4 2 2 - - 0.0
30/09:00am 7.5 5.2 5.0 84 1.1 S 6 7 3 4 - - 0.0
30/08:30am 7.2 5.0 5.2 87 0.9 S 6 6 3 3 - - 0.0
30/08:00am 7.1 5.2 5.1 87 0.9 SSE 4 7 2 4 - - 0.0
30/07:30am 7.3 5.4 5.1 86 1.0 SSW 4 7 2 4 - - 0.0
30/07:00am 7.6 5.4 5.1 84 1.1 SSE 6 6 3 3 - - 0.0
30/06:30am 7.4 5.1 4.9 84 1.1 SE 6 7 3 4 - - 0.0
30/06:00am 7.5 5.2 5.0 84 1.1 SSE 6 7 3 4 - - 0.0
30/05:30am 7.9 6.0 5.0 82 1.3 SSW 4 7 2 4 - - 0.0
30/05:00am 8.3 6.0 4.7 78 1.6 N 6 9 3 5 - - 0.0
30/04:30am 8.4 5.5 4.4 76 1.8 ENE 9 13 5 7 - - 0.0
30/04:00am 8.4 5.1 4.4 76 1.8 ENE 11 15 6 8 - - 0.0
30/03:30am 8.3 6.0 4.9 79 1.5 ESE 6 9 3 5 - - 0.0
30/03:00am 8.3 5.9 5.1 80 1.4 ESE 7 13 4 7 - - 0.0
30/02:30am 8.3 6.5 5.2 81 1.4 SE 4 6 2 3 - - 0.0
30/02:00am 8.4 6.0 5.2 80 1.4 SE 7 9 4 5 - - 0.0
30/01:30am 8.6 6.2 5.4 80 1.4 SE 7 11 4 6 - - 0.0
30/01:00am 8.9 6.8 5.8 81 1.4 SE 6 7 3 4 - - 0.0
30/12:30am 9.2 6.9 5.8 79 1.6 SE 7 13 4 7 - - 0.0
30/12:00am 9.4 7.0 5.4 76 1.8 SSE 7 13 4 7 - - 0.0
 
Date/Time
EST
Temp
°C
App
Temp
°C
Dew
Point
Rel
Hum
%
Delta-T
°C
Wind Press
QNH
hPa
Press
MSL
hPa
Rain
since 9 am
mm
Dir
 
Spd
km/h
Gust
km/h
Spd
kts
Gust
kts
29/11:30pm 9.4 8.2 4.6 72 2.1 CALM 0 0 0 0 - - 0.0
29/11:00pm 9.7 8.3 5.3 74 2.0 N 2 4 1 2 - - 0.0
29/10:30pm 9.5 7.2 4.7 72 2.2 N 6 6 3 3 - - 0.0
29/10:00pm 10.1 8.4 3.8 65 2.8 NNE 2 4 1 2 - - 0.0
29/09:30pm 10.4 8.7 3.9 64 2.9 ENE 2 4 1 2 - - 0.0
29/09:00pm 10.3 8.6 5.7 73 2.1 NE 4 6 2 3 - - 0.0
29/08:30pm 10.1 8.9 6.3 77 1.8 NE 2 2 1 1 - - 0.0
29/08:00pm 10.4 8.8 6.2 75 2.0 ENE 4 4 2 2 - - 0.0
29/07:30pm 10.8 9.1 5.8 71 2.3 ENE 4 6 2 3 - - 0.0
29/07:00pm 10.4 8.8 6.4 76 1.9 ENE 4 6 2 3 - - 0.0
29/06:30pm 10.6 9.0 6.2 74 2.1 ENE 4 4 2 2 - - 0.0
29/06:00pm 10.9 9.6 6.1 72 2.2 SE 2 4 1 2 - - 0.0
29/05:30pm 11.3 9.5 5.2 66 2.8 SSE 4 6 2 3 - - 0.0
29/05:00pm 11.9 9.2 3.9 58 3.6 ESE 7 11 4 6 - - 0.0
29/04:30pm 12.2 9.4 3.4 55 3.9 S 7 13 4 7 - - 0.0
29/04:00pm 12.3 9.7 4.0 57 3.8 SSE 7 11 4 6 - - 0.0
29/03:30pm 12.5 10.2 2.9 52 4.2 SSW 4 9 2 5 - - 0.0
29/03:00pm 12.6 10.0 3.3 53 4.2 SSW 6 7 3 4 - - 0.0
29/02:30pm 12.8 10.6 3.5 53 4.2 S 4 6 2 3 - - 0.0
29/02:00pm 12.8 10.9 2.6 50 4.5 SW 2 6 1 3 - - 0.0
29/01:30pm 12.9 11.1 3.3 52 4.3 W 2 6 1 3 - - 0.0
29/01:00pm 12.7 11.0 6.1 64 3.1 S 4 6 2 3 - - 0.0
29/12:30pm 12.2 10.9 7.5 73 2.3 SSW 4 6 2 3 - - 0.0
29/12:00pm 11.9 10.5 7.4 74 2.2 SE 4 6 2 3 - - 0.0
29/11:30am 11.5 10.5 7.4 76 2.0 SE 2 4 1 2 - - 0.0
29/11:00am 11.0 9.7 7.5 79 1.7 SSE 4 6 2 3 - - 0.0
29/10:30am 10.6 9.5 7.1 79 1.7 ENE 2 6 1 3 - - 0.0
29/10:00am 10.3 8.8 7.0 80 1.6 E 4 6 2 3 - - 0.0
29/09:30am 10.2 9.4 6.7 79 1.7 CALM 0 2 0 1 - - 0.0
29/09:00am 9.9 8.0 6.6 80 1.6 SE 6 7 3 4 - - 0.0
29/08:30am 9.7 8.2 6.6 81 1.5 SE 4 6 2 3 - - 0.0
29/08:00am 9.6 7.9 6.1 79 1.6 SE 4 6 2 3 - - 0.0
29/07:30am 10.0 8.0 6.2 77 1.8 SE 6 7 3 4 - - 0.0
29/07:00am 9.9 8.2 5.9 76 1.9 ESE 4 6 2 3 - - 0.0
29/06:30am 9.8 7.7 5.6 75 1.9 SE 6 7 3 4 - - 0.0
29/06:00am 9.6 7.9 5.8 77 1.7 S 4 6 2 3 - - 0.0
29/05:30am 9.7 7.9 5.5 75 1.9 SE 4 4 2 2 - - 0.0
29/05:00am 9.7 8.7 5.7 76 1.8 CALM 0 4 0 2 - - 0.0
29/04:30am 9.8 8.8 5.4 74 2.0 CALM 0 0 0 0 - - 0.0
29/04:00am 9.8 8.9 6.2 78 1.7 CALM 0 0 0 0 - - 0.0
29/03:30am 10.3 8.9 5.5 72 2.2 SSE 2 9 1 5 - - 0.0
29/03:00am 9.8 8.8 5.8 76 1.8 CALM 0 0 0 0 - - 0.0
29/02:30am 10.1 8.4 5.7 74 2.0 S 4 6 2 3 - - 0.0
29/02:00am 10.5 9.5 5.5 71 2.3 CALM 0 0 0 0 - - 0.0
29/01:30am 10.1 9.2 6.1 76 1.9 CALM 0 0 0 0 - - 0.0
29/01:00am 10.1 9.2 5.9 75 1.9 CALM 0 2 0 1 - - 0.0
29/12:30am 10.8 8.6 5.3 69 2.5 N 6 7 3 4 - - 0.0
29/12:00am 10.5 9.2 5.9 73 2.1 WNW 2 4 1 2 - - 0.0
 
Date/Time
EST
Temp
°C
App
Temp
°C
Dew
Point
Rel
Hum
%
Delta-T
°C
Wind Press
QNH
hPa
Press
MSL
hPa
Rain
since 9 am
mm
Dir
 
Spd
km/h
Gust
km/h
Spd
kts
Gust
kts
28/11:30pm 10.2 9.3 6.2 76 1.9 CALM 0 0 0 0 - - 0.0
28/11:00pm 10.1 9.3 6.3 77 1.8 CALM 0 0 0 0 - - 0.0
28/10:30pm 10.0 9.1 6.2 77 1.8 CALM 0 0 0 0 - - 0.0
28/10:00pm 10.3 9.0 6.1 75 2.0 SSW 2 4 1 2 - - 0.0
28/09:30pm 10.6 8.5 6.0 73 2.1 SSW 6 9 3 5 - - 0.0
28/09:00pm 10.9 9.2 5.9 71 2.3 N 4 6 2 3 - - 0.0
28/08:30pm 11.3 9.6 5.8 69 2.6 NNE 4 4 2 2 - - 0.0
28/08:00pm 11.2 9.5 6.1 71 2.4 NNE 4 4 2 2 - - 0.0
28/07:30pm 11.2 9.9 6.1 71 2.4 NW 2 4 1 2 - - 0.0
28/07:00pm 11.6 9.8 5.5 66 2.8 NNE 4 6 2 3 - - 0.0
28/06:30pm 11.6 9.9 5.7 67 2.8 NE 4 6 2 3 - - 0.0
28/06:00pm 11.2 9.5 5.7 69 2.6 NE 4 6 2 3 - - 0.0
28/05:30pm 11.7 9.9 5.3 65 3.0 NE 4 4 2 2 - - 0.0
28/05:00pm 12.9 11.9 5.6 61 3.4 CALM 0 0 0 0 - - 0.0
28/04:30pm 13.5 11.8 5.7 59 3.7 SE 4 7 2 4 - - 0.0
28/04:00pm 13.6 11.3 5.0 56 4.0 SE 6 9 3 5 - - 0.0
28/03:30pm 13.5 12.0 4.9 56 4.0 SE 2 4 1 2 - - 0.0
28/03:00pm 14.0 12.1 5.1 55 4.2 SE 4 9 2 5 - - 0.0
28/02:30pm 14.3 12.4 5.1 54 4.3 SW 4 6 2 3 - - 0.0
28/02:00pm 13.7 11.5 5.3 57 4.0 SE 6 9 3 5 - - 0.0
28/01:30pm 14.6 12.9 5.9 56 4.2 N 4 6 2 3 - - 0.0
28/01:00pm 13.3 11.9 5.5 59 3.7 SSW 2 4 1 2 - - 0.0
28/12:30pm 12.4 10.6 5.6 63 3.2 WSW 4 7 2 4 - - 0.0
28/12:00pm 11.5 9.9 6.4 71 2.4 SSW 4 7 2 4 - - 0.0
28/11:30am 10.6 9.3 5.8 72 2.2 SW 2 6 1 3 - - 0.0
28/11:00am 9.5 7.3 5.5 76 1.8 SSE 6 7 3 4 - - 0.0
28/10:30am 9.4 7.6 5.2 75 1.9 ESE 4 7 2 4 - - 0.0
28/10:00am 9.4 7.5 5.0 74 2.0 ENE 4 6 2 3 - - 0.0
28/09:30am 7.7 5.1 4.1 78 1.6 ESE 7 11 4 6 - - 0.0
28/09:00am 7.9 6.7 4.8 81 1.4 CALM 0 4 0 2 - - 0.0
28/08:30am 7.1 5.1 4.4 83 1.2 N 4 6 2 3 - - 0.0
28/08:00am 5.9 2.9 3.9 87 0.9 N 9 11 5 6 - - 0.0
28/07:30am 5.2 2.0 3.2 87 0.8 N 9 11 5 6 - - 0.0
28/07:00am 6.0 2.1 3.5 84 1.1 N 13 15 7 8 - - 0.0
28/06:30am 6.3 2.9 3.8 84 1.1 N 11 15 6 8 - - 0.0
28/06:00am 6.1 2.7 3.8 85 1.0 N 11 11 6 6 - - 0.0
28/05:30am 6.3 3.2 3.6 83 1.1 NNE 9 9 5 5 - - 0.0
28/05:00am 7.6 4.6 4.0 78 1.6 NNE 9 13 5 7 - - 0.0
28/04:30am 8.1 5.1 4.1 76 1.7 NE 9 15 5 8 - - 0.0
28/04:00am 7.5 4.1 4.1 79 1.5 NE 11 13 6 7 - - 0.0
28/03:30am 7.4 4.0 3.8 78 1.6 ENE 11 13 6 7 - - 0.0
28/03:00am 7.5 4.5 3.9 78 1.6 ENE 9 13 5 7 - - 0.0
28/02:30am 7.2 4.2 4.0 80 1.4 ENE 9 13 5 7 - - 0.0
28/02:00am 6.8 3.3 3.6 80 1.4 ENE 11 13 6 7 - - 0.0
28/01:30am 7.2 3.8 3.8 79 1.5 ENE 11 13 6 7 - - 0.0
28/01:00am 6.8 3.7 3.8 81 1.3 ENE 9 13 5 7 - - 0.0
28/12:30am 6.5 3.4 3.5 81 1.3 E 9 13 5 7 - - 0.0
28/12:00am 7.1 4.1 3.9 80 1.4 ENE 9 13 5 7 - - 0.0
 
Date/Time
EST
Temp
°C
App
Temp
°C
Dew
Point
Rel
Hum
%
Delta-T
°C
Wind Press
QNH
hPa
Press
MSL
hPa
Rain
since 9 am
mm
Dir
 
Spd
km/h
Gust
km/h
Spd
kts
Gust
kts
27/11:30pm 7.3 4.3 3.9 79 1.5 E 9 13 5 7 - - 0.0
27/11:00pm 7.6 4.6 4.0 78 1.6 E 9 15 5 8 - - 0.0
27/10:30pm 8.0 5.0 4.2 77 1.7 E 9 13 5 7 - - 0.0
27/10:00pm 8.1 5.1 4.1 76 1.7 E 9 13 5 7 - - 0.0
27/09:30pm 8.2 5.2 4.2 76 1.8 E 9 13 5 7 - - 0.0
27/09:00pm 8.5 5.5 4.3 75 1.9 ESE 9 13 5 7 - - 0.0
27/08:30pm 9.0 6.1 4.6 74 2.0 ESE 9 13 5 7 - - 0.0
27/08:00pm 9.1 6.2 4.7 74 2.0 ESE 9 11 5 6 - - 0.0
27/07:30pm 9.5 7.1 5.1 74 2.0 ESE 7 13 4 7 - - 0.0
27/07:00pm 8.8 6.5 5.0 77 1.7 ESE 6 7 3 4 - - 0.0
27/06:30pm 9.8 7.6 5.2 73 2.1 SE 6 7 3 4 - - 0.0
27/06:00pm 10.4 8.3 5.8 73 2.1 SSE 6 7 3 4 - - 0.0
27/05:30pm 11.2 9.1 5.9 70 2.5 SSE 6 6 3 3 - - 0.0
27/05:00pm 12.2 10.3 6.7 69 2.6 S 6 7 3 4 - - 0.0
27/04:30pm 12.7 10.6 6.5 66 3.0 SSW 7 9 4 5 - - 0.0
27/04:00pm 13.1 10.9 6.2 63 3.3 S 7 11 4 6 - - 0.0
27/03:30pm 12.6 10.7 6.6 67 2.9 SSW 6 9 3 5 - - 0.0

Other Formats:

Comma delimited format used in spreadsheet applications
http://www.bom.gov.au/fwo/IDV60801/IDV60801.95831.axf

JavaScript Object Notation format (JSON) in row-major order
http://www.bom.gov.au/fwo/IDV60801/IDV60801.95831.json